Unicom:                    122.8

AWOS:                  118.275

Elevation           1458’ MSL

TPA:                   2500’ MSL

06/24:         5003’ L   75’ W

PAPI:       06/Left     24/Left

(Operate lights on unicom freq.)

Traffic Pattern: Left

Beacon: Sunset to Sunrise

Windsock: yes, lighted

Segmented Circle: No

 

Cleveland Center: 126.72/291.65

FSS: Altoona

[Source: ADDS]
METAR
KFKL 080656Z AUTO 00000KT 10SM OVC037 02/01 A2984 RMK AO2 SLP116 T00170011 FZRANO =
KFKL 080531Z 0806/0906 27004KT P6SM BKN045 FM080700 00000KT P6SM -SHRASN BKN025 FM080900 28005KT 6SM -SHRASN OVC007 FM081200 30007KT P6SM OVC010 FM081800 30007KT P6SM OVC025 FM082100 28006KT P6SM OVC050 FM090000 25003KT P6SM BKN050
TAF
KFKL 080531Z 0806/0906 27004KT P6SM BKN045 FM080700 00000KT P6SM -SHRASN BKN025 FM080900 28005KT 6SM -SHRASN OVC007 FM081200 30007KT P6SM OVC010 FM081800 30007KT P6SM OVC025 FM082100 28006KT P6SM OVC050 FM090000 25003KT P6SM BKN050 =
[Source: ADDS]
METAR
KDUJ 080653Z AUTO 00000KT 7SM FEW048 SCT060 01/M01 A2982 RMK AO2 SLP108 T00061006 =
KDUJ 080615Z 0806/0906 00000KT 2SM BR BKN050 FM081000 29005KT 2SM -SHRASN BR OVC015 FM081200 30005KT 5SM -SHRA BKN007 FM081500 29009KT P6SM VCSH BKN015 FM082100 29011KT P6SM OVC050 FM090100 29004KT P6SM BKN050
TAF
KDUJ 080615Z 0806/0906 00000KT 2SM BR BKN050 FM081000 29005KT 2SM -SHRASN BR OVC015 FM081200 30005KT 5SM -SHRA BKN007 FM081500 29009KT P6SM VCSH BKN015 FM082100 29011KT P6SM OVC050 FM090100 29004KT P6SM BKN050 =

Nearby Overnight Accommodations.

The Park Inn by Radisson

45 Holiday Inn Rd

Clarion, PA 16214

Phone # (814) 226-8850

Park Inn by Radisson

45 Holiday Inn Rd Clarion, PA 16214 Phone # (814) 226-8850

Microtel

121 North Point Drive

Clarion, PA 16214

Phone # (814) 227-2223

Microtel

121 North Point Drive Clarion, PA 16214 Phone # (814) 227-2223

Hampton Inn and Suites

4 Hospital Drive

Clarion, PA 16214

Phone # (814) 226-4444

Hampton Inn & Suites

4 Hospital Drive Clarion, PA 16214 Phone # (814) 226-4444

Comfort Inn

129 Dolby Street

Clarion, PA 16214

Phone # (814) 226-5230

Comfort Inn

129 Dolby Street Clarion, PA 16214 Phone # (814) 226-5230

Quality Inn

24 United Drive

Clarion, PA 16214 

Phone # (814) 226-8682 


Quality Inn

24 United Drive Clarion, PA 16214 Phone # (814) 226-8682

Holiday Inn Express

325 Perkins Road

Clarion, PA 16214

Phone (814) 223-4010


Holiday Inn Express

325 Perkins Road Clarion, PA 16214 Phone (814) 223-4010

Super 8 Motel

135 Hotel Road

Clarion, PA 16214

Phone # (800) 536-9326

Super 8 Motel

135 Hotel Road Clarion, PA 16214 Phone # (800) 536-9326


Transportation.

Enterprise

545 South Fifth Avenue

Clarion, PA 16214

Phone # (814) 227-1284

Enterprise

545 South Fifth Avenue Clarion, PA 16214 Phone # (814) 227-1284

Clarion County Taxi, Inc.

East End Road

Clarion County Taxi, Inc.

Shippenville, PA 16254

Phone # (814) 226-8635

 *cash, check, debit


Choice Cab Co.

Clarion, PA 16214

Phone # (814) 221- 4992

 *cash only